createdAt,value
2023-04-20T00:02:18.450Z,2.20
2023-04-20T00:04:46.792Z,2.37
2023-04-20T00:07:16.742Z,2.17
2023-04-20T00:09:44.550Z,1.93
2023-04-20T00:12:12.579Z,1.80
2023-04-20T00:14:41.902Z,2.20
2023-04-20T00:17:09.682Z,2.40
2023-04-20T00:19:37.365Z,2.50
2023-04-20T00:22:05.212Z,2.37
2023-04-20T00:24:32.911Z,2.10
2023-04-20T00:27:00.693Z,2.17
2023-04-20T00:29:28.390Z,2.13
2023-04-20T00:31:57.688Z,2.00
2023-04-20T00:34:25.368Z,2.30
2023-04-20T00:36:53.096Z,1.93
2023-04-20T00:39:20.838Z,2.10
2023-04-20T00:41:48.876Z,2.10
2023-04-20T00:44:16.859Z,2.70
2023-04-20T00:46:44.786Z,2.00
2023-04-20T00:49:15.261Z,2.13
2023-04-20T00:51:43.277Z,2.40
2023-04-20T00:54:12.390Z,2.33
2023-04-20T00:56:40.346Z,2.27
2023-04-20T00:59:08.680Z,2.40
2023-04-20T01:01:36.440Z,2.20
2023-04-20T01:04:04.333Z,2.43
2023-04-20T01:06:33.786Z,2.50
2023-04-20T01:09:01.855Z,3.37
2023-04-20T01:11:29.500Z,2.37
2023-04-20T01:13:57.298Z,2.93
2023-04-20T01:16:25.047Z,2.90
2023-04-20T01:18:52.807Z,2.73
2023-04-20T01:21:22.702Z,3.10
2023-04-20T01:23:52.243Z,2.73
2023-04-20T01:26:22.668Z,3.17
2023-04-20T01:28:50.764Z,2.73
2023-04-20T01:31:19.115Z,2.90
2023-04-20T01:33:47.053Z,2.90
2023-04-20T01:36:15.282Z,2.63
2023-04-20T01:38:43.962Z,2.73
2023-04-20T01:41:13.400Z,3.17
2023-04-20T01:43:42.152Z,3.00
2023-04-20T01:46:09.981Z,2.80
2023-04-20T01:48:37.663Z,2.80
2023-04-20T01:51:05.805Z,3.10
2023-04-20T01:53:34.159Z,2.77
2023-04-20T01:56:01.947Z,2.80
2023-04-20T01:58:31.307Z,2.73
2023-04-20T02:00:58.955Z,3.57
2023-04-20T02:03:28.997Z,3.50
2023-04-20T02:05:56.802Z,2.70
2023-04-20T02:08:24.686Z,2.90
2023-04-20T02:10:52.632Z,2.90
2023-04-20T02:13:20.558Z,2.80
2023-04-20T02:15:49.884Z,2.90
2023-04-20T02:18:17.514Z,2.63
2023-04-20T02:20:46.140Z,3.10
2023-04-20T02:23:13.928Z,3.20
2023-04-20T02:25:42.003Z,3.10
2023-04-20T02:28:09.701Z,2.50
2023-04-20T02:30:37.405Z,2.53
2023-04-20T02:33:06.919Z,2.30
2023-04-20T02:35:34.979Z,2.37
2023-04-20T02:38:02.949Z,2.37
2023-04-20T02:40:31.019Z,2.63
2023-04-20T02:42:59.130Z,2.20
2023-04-20T02:45:26.961Z,2.13
2023-04-20T02:47:55.077Z,2.20
2023-04-20T02:50:24.218Z,2.47
2023-04-20T02:52:51.863Z,2.50
2023-04-20T02:55:19.933Z,2.43
2023-04-20T02:57:47.947Z,2.20
2023-04-20T03:00:16.107Z,2.30
2023-04-20T03:02:44.593Z,2.40
2023-04-20T03:05:13.425Z,2.60
2023-04-20T03:07:42.701Z,2.60
2023-04-20T03:10:12.334Z,2.57
2023-04-20T03:12:41.597Z,2.40
2023-04-20T03:15:12.214Z,2.20
2023-04-20T03:17:40.114Z,2.63
2023-04-20T03:20:09.123Z,2.43
2023-04-20T03:22:37.029Z,2.73
2023-04-20T03:25:08.294Z,2.47
2023-04-20T03:27:36.037Z,2.73
2023-04-20T03:30:04.029Z,2.40
2023-04-20T03:32:32.851Z,2.47
2023-04-20T03:35:00.967Z,2.50
2023-04-20T03:37:28.763Z,2.73
2023-04-20T03:39:56.385Z,2.80
2023-04-20T03:42:26.156Z,2.33
2023-04-20T03:44:54.033Z,2.97
2023-04-20T03:47:21.983Z,2.93
2023-04-20T03:49:49.684Z,3.00
2023-04-20T03:52:17.631Z,2.63
2023-04-20T03:54:45.539Z,3.27
2023-04-20T03:57:13.804Z,3.50
2023-04-20T03:59:42.855Z,3.57
2023-04-20T04:02:10.993Z,3.30
2023-04-20T04:04:39.085Z,3.60
2023-04-20T04:07:07.611Z,3.43
2023-04-20T04:09:35.212Z,3.63
2023-04-20T04:12:04.683Z,3.30
2023-04-20T04:14:32.344Z,3.53
2023-04-20T04:17:01.789Z,3.60
2023-04-20T04:19:29.665Z,3.30
2023-04-20T04:21:57.517Z,4.03
2023-04-20T04:24:27.217Z,3.17
2023-04-20T04:26:56.881Z,3.73
2023-04-20T04:29:25.774Z,3.33
2023-04-20T04:31:54.725Z,3.53
2023-04-20T04:34:29.882Z,3.83
2023-04-20T04:36:57.957Z,3.50
2023-04-20T04:39:27.088Z,3.67
2023-04-20T04:41:56.481Z,3.73
2023-04-20T04:44:25.999Z,3.57
2023-04-20T04:46:54.041Z,3.27
2023-04-20T04:49:24.610Z,3.93
2023-04-20T04:51:52.512Z,3.60
2023-04-20T04:54:20.588Z,3.37
2023-04-20T04:56:48.304Z,3.10
2023-04-20T04:59:16.233Z,3.00
2023-04-20T05:01:44.227Z,3.30
2023-04-20T05:04:12.351Z,3.23
2023-04-20T05:06:41.991Z,2.93
2023-04-20T05:09:09.889Z,3.10
2023-04-20T05:11:37.936Z,3.33
2023-04-20T05:14:05.797Z,3.23
2023-04-20T05:16:33.722Z,3.13
2023-04-20T05:19:01.488Z,3.13
2023-04-20T05:21:29.506Z,2.90
2023-04-20T05:23:58.647Z,3.50
2023-04-20T05:26:26.642Z,3.23
2023-04-20T05:28:54.307Z,3.00
2023-04-20T05:31:22.720Z,3.43
2023-04-20T05:33:52.784Z,3.30
2023-04-20T05:36:20.872Z,3.50
2023-04-20T05:38:48.881Z,3.40
2023-04-20T05:41:18.280Z,3.70
2023-04-20T05:43:46.249Z,3.73
2023-04-20T05:46:13.871Z,3.30
2023-04-20T05:48:41.732Z,3.70
2023-04-20T05:51:09.764Z,3.73
2023-04-20T05:53:37.421Z,3.50
2023-04-20T05:56:05.760Z,3.57
2023-04-20T05:58:37.642Z,3.97
2023-04-20T06:01:06.009Z,4.00
2023-04-20T06:03:33.840Z,4.27
2023-04-20T06:06:01.682Z,3.80
2023-04-20T06:08:30.161Z,4.10
2023-04-20T06:10:58.825Z,3.97
2023-04-20T06:13:26.899Z,4.20
2023-04-20T06:15:56.295Z,4.60
2023-04-20T06:18:24.241Z,4.20
2023-04-20T06:20:54.167Z,4.53
2023-04-20T06:23:22.126Z,4.20
2023-04-20T06:25:49.996Z,4.13
2023-04-20T06:28:17.812Z,4.20
2023-04-20T06:30:45.847Z,4.23
2023-04-20T06:33:17.288Z,4.53
2023-04-20T06:35:45.889Z,4.60
2023-04-20T06:38:14.025Z,4.97
2023-04-20T06:40:41.889Z,4.50
2023-04-20T06:43:09.804Z,5.03
2023-04-20T06:45:37.591Z,4.70
2023-04-20T06:48:05.755Z,4.50
2023-04-20T06:50:36.236Z,4.43
2023-04-20T06:53:04.528Z,4.60
2023-04-20T06:55:32.984Z,4.97
2023-04-20T06:58:00.721Z,4.57
2023-04-20T07:00:30.576Z,5.10
2023-04-20T07:02:58.341Z,4.40
2023-04-20T07:05:28.817Z,4.77
2023-04-20T07:07:58.141Z,4.80
2023-04-20T07:10:26.262Z,4.47
2023-04-20T07:12:54.269Z,4.80
2023-04-20T07:15:24.105Z,4.97
2023-04-20T07:17:52.221Z,4.90
2023-04-20T07:20:19.922Z,4.10
2023-04-20T07:22:48.607Z,4.60
2023-04-20T07:25:18.534Z,4.60
2023-04-20T07:27:47.519Z,4.37
2023-04-20T07:30:16.151Z,4.57
2023-04-20T07:32:44.445Z,4.53
2023-04-20T07:35:12.762Z,4.37
2023-04-20T07:37:40.950Z,4.40
2023-04-20T07:40:10.064Z,4.70
2023-04-20T07:42:39.278Z,4.40
2023-04-20T07:45:08.627Z,4.70
2023-04-20T07:47:38.171Z,4.53
2023-04-20T07:50:07.040Z,4.83
2023-04-20T07:52:35.760Z,4.73
2023-04-20T07:55:03.588Z,4.83
2023-04-20T07:57:32.268Z,4.63
2023-04-20T08:00:01.563Z,4.73
2023-04-20T08:02:30.825Z,4.50
2023-04-20T08:04:58.759Z,4.33
2023-04-20T08:07:26.807Z,4.63
2023-04-20T08:09:55.273Z,4.50
2023-04-20T08:12:23.236Z,4.00
2023-04-20T08:14:52.340Z,4.10
2023-04-20T08:17:22.113Z,4.23
2023-04-20T08:19:49.894Z,4.40
2023-04-20T08:22:17.521Z,3.67
2023-04-20T08:24:46.359Z,4.10
2023-04-20T08:27:14.633Z,4.20
2023-04-20T08:29:43.030Z,4.00
2023-04-20T08:32:12.644Z,3.70
2023-04-20T08:34:41.863Z,3.90
2023-04-20T08:37:12.081Z,4.00
2023-04-20T08:39:40.223Z,3.90
2023-04-20T08:42:07.991Z,3.77
2023-04-20T08:44:37.799Z,3.83
2023-04-20T08:47:06.694Z,4.10
2023-04-20T08:49:35.366Z,3.80
2023-04-20T08:52:05.418Z,3.40
2023-04-20T08:54:35.169Z,4.07
2023-04-20T08:57:03.035Z,3.70
2023-04-20T08:59:32.666Z,3.97
2023-04-20T09:02:09.884Z,3.70
2023-04-20T09:04:38.735Z,3.40
2023-04-20T09:07:17.718Z,3.43
2023-04-20T09:09:56.126Z,3.80
2023-04-20T09:12:25.576Z,3.70
2023-04-20T09:14:54.467Z,3.80
2023-04-20T09:17:36.676Z,3.87
2023-04-20T09:20:05.354Z,4.00
2023-04-20T09:22:37.294Z,3.50
2023-04-20T09:25:14.615Z,3.80
2023-04-20T09:27:42.622Z,3.30
2023-04-20T09:30:11.414Z,3.33
2023-04-20T09:32:39.124Z,3.37
2023-04-20T09:35:07.975Z,3.13
2023-04-20T09:37:37.523Z,3.20
2023-04-20T09:40:06.296Z,3.57
2023-04-20T09:42:35.947Z,3.00
2023-04-20T09:45:04.673Z,3.10
2023-04-20T09:47:37.052Z,3.27
2023-04-20T09:50:19.428Z,3.30
2023-04-20T09:52:55.480Z,3.40
2023-04-20T09:55:26.256Z,3.50
2023-04-20T09:57:55.498Z,3.40
2023-04-20T10:00:24.569Z,3.60
2023-04-20T10:02:52.888Z,3.37
2023-04-20T10:05:20.868Z,3.03
2023-04-20T10:07:48.742Z,3.03
2023-04-20T10:10:17.902Z,3.00
2023-04-20T10:12:50.457Z,2.57
2023-04-20T10:15:19.077Z,2.80
2023-04-20T10:17:47.113Z,2.90
2023-04-20T10:20:23.682Z,2.73
2023-04-20T10:22:52.840Z,2.70
2023-04-20T10:25:25.417Z,2.90
2023-04-20T10:27:57.570Z,2.83
2023-04-20T10:30:26.834Z,2.83
2023-04-20T10:33:05.290Z,3.00
2023-04-20T10:35:45.787Z,3.20
2023-04-20T10:38:13.872Z,2.80
2023-04-20T10:40:43.613Z,2.90
2023-04-20T10:43:21.695Z,2.93
2023-04-20T10:45:50.874Z,3.20
2023-04-20T10:48:18.614Z,2.70
2023-04-20T10:50:46.849Z,3.00
2023-04-20T10:53:22.262Z,3.00
2023-04-20T10:56:00.792Z,2.97
2023-04-20T10:58:29.031Z,3.27
2023-04-20T11:01:00.865Z,2.87
2023-04-20T11:03:30.467Z,2.77
2023-04-20T11:06:01.869Z,2.67
2023-04-20T11:08:40.763Z,2.57
2023-04-20T11:11:22.065Z,2.43
2023-04-20T11:13:51.783Z,2.37
2023-04-20T11:16:21.313Z,2.93
2023-04-20T11:18:54.393Z,2.57
2023-04-20T11:21:24.503Z,3.00
2023-04-20T11:23:52.556Z,2.63
2023-04-20T11:26:21.753Z,2.50
2023-04-20T11:28:55.931Z,2.63
2023-04-20T11:31:26.450Z,2.80
2023-04-20T11:33:54.142Z,2.60
2023-04-20T11:36:22.440Z,2.70
2023-04-20T11:38:50.491Z,2.87
2023-04-20T11:41:18.899Z,2.80
2023-04-20T11:43:49.105Z,3.00
2023-04-20T11:46:18.293Z,2.87
2023-04-20T11:48:48.433Z,2.80
2023-04-20T11:51:16.580Z,3.10
2023-04-20T11:53:44.264Z,2.80
2023-04-20T11:56:12.323Z,2.80
2023-04-20T11:58:40.007Z,3.10
2023-04-20T12:01:09.455Z,3.13
2023-04-20T12:03:38.330Z,3.67
2023-04-20T12:06:07.675Z,2.97
2023-04-20T12:08:35.643Z,2.97
2023-04-20T12:11:03.250Z,2.87
2023-04-20T12:13:31.271Z,2.87
2023-04-20T12:15:59.182Z,3.37
2023-04-20T12:18:28.430Z,2.60
2023-04-20T12:20:56.274Z,2.67
2023-04-20T12:23:24.131Z,2.67
2023-04-20T12:25:52.061Z,2.80
2023-04-20T12:28:20.245Z,2.97
2023-04-20T12:30:47.827Z,2.40
2023-04-20T12:33:16.206Z,3.30
2023-04-20T12:35:46.156Z,2.87
2023-04-20T12:38:14.703Z,3.10
2023-04-20T12:40:42.590Z,3.10
2023-04-20T12:43:10.767Z,2.93
2023-04-20T12:45:39.586Z,2.80
2023-04-20T12:48:07.468Z,2.63
2023-04-20T12:50:35.438Z,2.77
2023-04-20T12:53:04.834Z,2.10
2023-04-20T12:55:33.512Z,2.90
2023-04-20T12:58:01.209Z,2.80
2023-04-20T13:00:29.325Z,2.77
2023-04-20T13:02:57.224Z,2.73
2023-04-20T13:05:25.500Z,2.37
2023-04-20T13:07:53.350Z,3.00
2023-04-20T13:10:23.148Z,2.50
2023-04-20T13:12:51.774Z,2.50
2023-04-20T13:15:31.920Z,2.50
2023-04-20T13:18:07.452Z,2.87
2023-04-20T13:20:35.358Z,2.40
2023-04-20T13:23:04.052Z,2.27
2023-04-20T13:25:34.517Z,2.43
2023-04-20T13:28:05.307Z,2.30
2023-04-20T13:30:34.576Z,2.37
2023-04-20T13:33:02.326Z,2.50
2023-04-20T13:35:30.691Z,2.50
2023-04-20T13:37:58.409Z,2.50
2023-04-20T13:40:26.846Z,2.30
2023-04-20T13:42:57.491Z,2.40
2023-04-20T13:45:25.580Z,2.17
2023-04-20T13:47:53.429Z,2.35
2023-04-20T13:50:21.371Z,2.10
2023-04-20T13:52:49.209Z,2.03
2023-04-20T13:55:18.146Z,2.00
2023-04-20T13:57:45.992Z,2.08
2023-04-20T14:00:16.933Z,2.25
2023-04-20T14:02:45.533Z,2.17
2023-04-20T14:05:13.292Z,2.45
2023-04-20T14:07:40.981Z,2.00
2023-04-20T14:10:10.603Z,2.50
2023-04-20T14:12:38.356Z,2.42
2023-04-20T14:15:06.976Z,2.05
2023-04-20T14:17:37.256Z,1.92
2023-04-20T14:20:05.912Z,2.05
2023-04-20T14:22:36.276Z,2.20
2023-04-20T14:25:05.620Z,1.80
2023-04-20T14:27:34.794Z,2.00
2023-04-20T14:30:03.956Z,2.22
2023-04-20T14:32:32.069Z,2.30
2023-04-20T14:35:02.284Z,2.05
2023-04-20T14:37:31.099Z,2.00
2023-04-20T14:40:00.021Z,1.88
2023-04-20T14:42:27.665Z,1.95
2023-04-20T14:44:56.009Z,1.73
2023-04-20T14:47:23.984Z,1.90
2023-04-20T14:49:51.767Z,1.95
2023-04-20T14:52:22.753Z,2.17
2023-04-20T14:54:50.746Z,1.87
2023-04-20T14:57:18.706Z,1.80
2023-04-20T14:59:46.371Z,2.10
2023-04-20T15:02:14.487Z,1.83
2023-04-20T15:04:42.696Z,2.20
2023-04-20T15:07:11.222Z,2.10
2023-04-20T15:09:40.390Z,2.00
2023-04-20T15:12:08.277Z,2.20
2023-04-20T15:14:36.015Z,2.20
2023-04-20T15:17:03.836Z,2.47
2023-04-20T15:19:31.541Z,2.60
2023-04-20T15:21:59.669Z,2.43
2023-04-20T15:24:27.355Z,2.50
2023-04-20T15:26:56.512Z,2.70
2023-04-20T15:29:24.396Z,2.53
2023-04-20T15:31:52.022Z,2.37
2023-04-20T15:34:20.138Z,3.00
2023-04-20T15:36:48.156Z,2.77
2023-04-20T15:39:16.123Z,2.80
2023-04-20T15:41:44.240Z,2.97
2023-04-20T15:44:13.915Z,2.97
2023-04-20T15:46:41.858Z,3.10
2023-04-20T15:49:10.766Z,3.70
2023-04-20T15:51:39.107Z,3.20
2023-04-20T15:54:07.479Z,2.80
2023-04-20T15:56:35.518Z,3.20
2023-04-20T15:59:03.386Z,3.50
2023-04-20T16:01:32.689Z,3.30
2023-04-20T16:04:00.883Z,3.33
2023-04-20T16:06:29.032Z,3.23
2023-04-20T16:08:59.862Z,4.03
2023-04-20T16:11:29.055Z,3.97
2023-04-20T16:13:58.401Z,3.77
2023-04-20T16:16:26.275Z,3.57
2023-04-20T16:18:55.698Z,3.73
2023-04-20T16:21:23.609Z,3.97
2023-04-20T16:23:53.523Z,3.63
2023-04-20T16:26:23.600Z,3.30
2023-04-20T16:28:52.269Z,3.77
2023-04-20T16:31:20.312Z,3.83
2023-04-20T16:33:48.160Z,3.77
2023-04-20T16:36:17.344Z,3.60
2023-04-20T16:38:45.227Z,3.37
2023-04-20T16:41:13.652Z,4.03
2023-04-20T16:43:41.904Z,3.90
2023-04-20T16:46:13.589Z,3.87
2023-04-20T16:48:42.148Z,4.30
2023-04-20T16:51:10.046Z,3.93
2023-04-20T16:53:39.262Z,4.50
2023-04-20T16:56:08.227Z,4.27
2023-04-20T16:58:37.623Z,4.10
2023-04-20T17:01:05.955Z,4.50
2023-04-20T17:03:33.984Z,4.67
2023-04-20T17:06:07.387Z,4.00
2023-04-20T17:08:35.497Z,4.13
2023-04-20T17:11:04.942Z,4.60
2023-04-20T17:13:32.662Z,4.87
2023-04-20T17:16:00.543Z,4.37
2023-04-20T17:18:28.320Z,4.87
2023-04-20T17:20:57.520Z,4.97
2023-04-20T17:23:27.375Z,4.90
2023-04-20T17:25:55.696Z,5.50
2023-04-20T17:28:24.778Z,5.97
2023-04-20T17:30:52.890Z,5.80
2023-04-20T17:33:20.856Z,5.60
2023-04-20T17:35:48.575Z,5.40
2023-04-20T17:38:16.373Z,5.30
2023-04-20T17:40:44.183Z,5.23
2023-04-20T17:43:13.402Z,4.93
2023-04-20T17:45:42.922Z,5.17
2023-04-20T17:48:10.674Z,5.17
2023-04-20T17:50:38.322Z,4.90
2023-04-20T17:53:08.438Z,5.10
2023-04-20T17:55:36.735Z,5.67
2023-04-20T17:58:04.819Z,5.60
2023-04-20T18:00:32.886Z,5.70
2023-04-20T18:03:02.491Z,6.17
2023-04-20T18:05:30.268Z,5.70
2023-04-20T18:07:58.027Z,5.83
2023-04-20T18:10:26.003Z,6.40
2023-04-20T18:12:54.165Z,5.83
2023-04-20T18:15:22.066Z,6.07
2023-04-20T18:17:50.627Z,6.43
2023-04-20T18:20:20.910Z,6.03
2023-04-20T18:22:50.618Z,5.53
2023-04-20T18:25:19.377Z,6.13
2023-04-20T18:27:48.056Z,6.13
2023-04-20T18:30:16.634Z,6.10
2023-04-20T18:32:45.066Z,6.40
2023-04-20T18:35:13.989Z,5.70
2023-04-20T18:37:44.361Z,5.57
2023-04-20T18:40:16.159Z,5.80
2023-04-20T18:42:44.671Z,6.10
2023-04-20T18:45:13.281Z,5.67
2023-04-20T18:47:43.330Z,5.97
2023-04-20T18:50:11.859Z,5.83
2023-04-20T18:52:39.698Z,5.50
2023-04-20T18:55:11.002Z,6.03
2023-04-20T18:57:39.609Z,6.67
2023-04-20T19:00:09.904Z,6.30
2023-04-20T19:02:38.142Z,6.63
2023-04-20T19:05:06.778Z,6.20
2023-04-20T19:07:34.498Z,7.13
2023-04-20T19:10:02.146Z,6.77
2023-04-20T19:12:32.709Z,7.33
2023-04-20T19:15:00.483Z,7.63
2023-04-20T19:17:28.298Z,7.50
2023-04-20T19:19:56.740Z,7.47
2023-04-20T19:22:25.059Z,7.93
2023-04-20T19:24:52.718Z,7.67
2023-04-20T19:27:20.418Z,8.17
2023-04-20T19:29:49.951Z,8.47
2023-04-20T19:32:17.776Z,8.67
2023-04-20T19:34:45.500Z,8.03
2023-04-20T19:37:13.231Z,8.57
2023-04-20T19:39:42.066Z,9.00
2023-04-20T19:42:09.960Z,9.07
2023-04-20T19:44:37.952Z,8.97
2023-04-20T19:47:07.649Z,8.93
2023-04-20T19:49:35.320Z,9.70
2023-04-20T19:52:03.392Z,10.23
2023-04-20T19:54:31.913Z,9.80
2023-04-20T19:56:59.872Z,9.73
2023-04-20T19:59:28.778Z,9.60
2023-04-20T20:01:56.892Z,10.77
2023-04-20T20:04:27.118Z,10.13
2023-04-20T20:06:55.203Z,10.50
2023-04-20T20:09:24.197Z,10.60
2023-04-20T20:11:52.792Z,10.13
2023-04-20T20:14:21.534Z,9.90
2023-04-20T20:16:49.445Z,10.60
2023-04-20T20:19:18.349Z,10.53
2023-04-20T20:21:47.628Z,10.73
2023-04-20T20:24:17.256Z,9.87
2023-04-20T20:26:44.893Z,10.20
2023-04-20T20:29:13.240Z,10.17
2023-04-20T20:31:41.469Z,10.67
2023-04-20T20:34:09.508Z,10.83
2023-04-20T20:36:37.386Z,11.20
2023-04-20T20:39:06.700Z,11.47
2023-04-20T20:41:35.810Z,10.53
2023-04-20T20:44:04.558Z,11.60
2023-04-20T20:46:32.685Z,11.50
2023-04-20T20:49:01.479Z,11.20
2023-04-20T20:51:30.077Z,11.40
2023-04-20T20:53:57.840Z,11.63
2023-04-20T20:56:27.203Z,11.73
2023-04-20T20:58:55.298Z,11.70
2023-04-20T21:01:23.551Z,11.73
2023-04-20T21:03:51.682Z,11.57
2023-04-20T21:06:19.885Z,11.97
2023-04-20T21:08:48.673Z,12.40
2023-04-20T21:11:16.290Z,10.77
2023-04-20T21:13:45.696Z,11.20
2023-04-20T21:16:13.455Z,12.10
2023-04-20T21:18:42.247Z,11.80
2023-04-20T21:21:12.523Z,12.10
2023-04-20T21:23:40.572Z,11.83
2023-04-20T21:26:08.894Z,11.40
2023-04-20T21:28:36.898Z,11.63
2023-04-20T21:31:06.423Z,12.00
2023-04-20T21:33:34.637Z,12.20
2023-04-20T21:36:02.799Z,11.60
2023-04-20T21:38:31.047Z,11.53
2023-04-20T21:40:58.840Z,11.80
2023-04-20T21:43:26.640Z,12.60
2023-04-20T21:45:54.722Z,12.03
2023-04-20T21:48:24.387Z,11.93
2023-04-20T21:50:52.173Z,12.77
2023-04-20T21:53:20.012Z,14.20
2023-04-20T21:55:48.377Z,13.60
2023-04-20T21:58:16.257Z,12.67
2023-04-20T22:00:44.253Z,12.83
2023-04-20T22:03:12.090Z,14.23
2023-04-20T22:05:41.301Z,12.97
2023-04-20T22:08:09.643Z,12.67
2023-04-20T22:10:37.418Z,12.83
2023-04-20T22:13:05.115Z,14.33
2023-04-20T22:15:33.402Z,13.90
2023-04-20T22:18:01.720Z,15.00
2023-04-20T22:20:29.484Z,16.17
2023-04-20T22:22:59.397Z,14.53
2023-04-20T22:25:28.266Z,15.67
2023-04-20T22:27:56.253Z,15.27
2023-04-20T22:30:23.957Z,15.67
2023-04-20T22:32:51.768Z,14.93
2023-04-20T22:35:19.592Z,15.33
2023-04-20T22:37:47.279Z,15.70
2023-04-20T22:40:16.456Z,15.77
2023-04-20T22:42:44.216Z,15.47
2023-04-20T22:45:12.602Z,16.23
2023-04-20T22:47:40.794Z,16.47
2023-04-20T22:50:09.667Z,16.43
2023-04-20T22:52:39.088Z,16.80
2023-04-20T22:55:08.148Z,17.00
2023-04-20T22:57:39.097Z,16.77
2023-04-20T23:00:11.566Z,16.43
2023-04-20T23:02:39.708Z,16.60
2023-04-20T23:05:08.342Z,17.10
2023-04-20T23:07:36.732Z,17.00
2023-04-20T23:10:06.179Z,17.27
2023-04-20T23:12:33.964Z,17.63
2023-04-20T23:15:03.935Z,18.00
2023-04-20T23:17:32.635Z,17.50
2023-04-20T23:20:00.504Z,17.30
2023-04-20T23:22:29.539Z,16.97
2023-04-20T23:24:57.705Z,16.20
2023-04-20T23:27:25.697Z,17.47
2023-04-20T23:29:53.585Z,16.10
2023-04-20T23:32:22.899Z,17.17
2023-04-20T23:34:52.207Z,16.03
2023-04-20T23:37:21.987Z,16.07
2023-04-20T23:39:49.957Z,17.03
2023-04-20T23:42:17.548Z,16.80
2023-04-20T23:44:45.329Z,16.30
2023-04-20T23:47:13.826Z,16.67
2023-04-20T23:49:42.836Z,16.60
2023-04-20T23:52:10.827Z,16.57
2023-04-20T23:54:39.082Z,16.90
2023-04-20T23:57:06.732Z,17.17
2023-04-20T23:59:34.997Z,17.37
